sensor_id;sensor_type;location;lat;lon;timestamp;pressure;altitude;pressure_sealevel;temperature;humidity
69982;BME280;57319;56.274;43.980;2023-01-26T00:00:45;100194.81;;;-4.40;82.30
69982;BME280;57319;56.274;43.980;2023-01-26T00:03:11;100180.34;;;-4.45;82.68
69982;BME280;57319;56.274;43.980;2023-01-26T00:05:37;100189.78;;;-4.40;82.57
69982;BME280;57319;56.274;43.980;2023-01-26T00:08:03;100188.81;;;-4.43;83.05
69982;BME280;57319;56.274;43.980;2023-01-26T00:10:29;100184.53;;;-4.45;83.06
69982;BME280;57319;56.274;43.980;2023-01-26T00:12:54;100173.75;;;-4.43;83.49
69982;BME280;57319;56.274;43.980;2023-01-26T00:15:20;100177.13;;;-4.42;82.92
69982;BME280;57319;56.274;43.980;2023-01-26T00:17:45;100167.16;;;-4.40;83.18
69982;BME280;57319;56.274;43.980;2023-01-26T00:20:11;100168.03;;;-4.40;83.24
69982;BME280;57319;56.274;43.980;2023-01-26T00:22:37;100172.28;;;-4.39;83.46
69982;BME280;57319;56.274;43.980;2023-01-26T00:25:02;100159.47;;;-4.44;83.75
69982;BME280;57319;56.274;43.980;2023-01-26T00:27:31;100161.16;;;-4.43;83.92
69982;BME280;57319;56.274;43.980;2023-01-26T00:29:57;100167.09;;;-4.42;83.97
69982;BME280;57319;56.274;43.980;2023-01-26T00:32:22;100159.00;;;-4.36;84.35
69982;BME280;57319;56.274;43.980;2023-01-26T00:34:48;100152.31;;;-4.36;84.12
69982;BME280;57319;56.274;43.980;2023-01-26T00:37:14;100155.25;;;-4.28;84.46
69982;BME280;57319;56.274;43.980;2023-01-26T00:39:39;100152.81;;;-4.27;84.19
69982;BME280;57319;56.274;43.980;2023-01-26T00:42:05;100154.63;;;-4.24;83.83
69982;BME280;57319;56.274;43.980;2023-01-26T00:44:31;100151.88;;;-4.29;84.16
69982;BME280;57319;56.274;43.980;2023-01-26T00:46:56;100167.81;;;-4.28;84.71
69982;BME280;57319;56.274;43.980;2023-01-26T00:49:22;100160.22;;;-4.30;84.19
69982;BME280;57319;56.274;43.980;2023-01-26T00:51:48;100156.56;;;-4.35;85.06
69982;BME280;57319;56.274;43.980;2023-01-26T00:54:13;100147.28;;;-4.36;84.63
69982;BME280;57319;56.274;43.980;2023-01-26T00:56:39;100136.53;;;-4.33;84.71
69982;BME280;57319;56.274;43.980;2023-01-26T00:59:05;100155.50;;;-4.23;84.50
69982;BME280;57319;56.274;43.980;2023-01-26T01:01:31;100154.88;;;-4.19;84.35
69982;BME280;57319;56.274;43.980;2023-01-26T01:03:57;100147.16;;;-4.22;84.67
69982;BME280;57319;56.274;43.980;2023-01-26T01:06:23;100152.97;;;-4.23;84.54
69982;BME280;57319;56.274;43.980;2023-01-26T01:08:49;100154.25;;;-4.15;84.59
69982;BME280;57319;56.274;43.980;2023-01-26T01:11:14;100155.06;;;-4.16;84.49
69982;BME280;57319;56.274;43.980;2023-01-26T01:13:40;100166.66;;;-4.18;84.33
69982;BME280;57319;56.274;43.980;2023-01-26T01:16:07;100151.72;;;-4.15;84.48
69982;BME280;57319;56.274;43.980;2023-01-26T01:18:34;100136.19;;;-4.24;84.70
69982;BME280;57319;56.274;43.980;2023-01-26T01:20:59;100134.69;;;-4.21;84.34
69982;BME280;57319;56.274;43.980;2023-01-26T01:23:28;100151.72;;;-4.15;85.07
69982;BME280;57319;56.274;43.980;2023-01-26T01:25:57;100138.63;;;-4.10;84.85
69982;BME280;57319;56.274;43.980;2023-01-26T01:28:23;100135.94;;;-4.13;84.73
69982;BME280;57319;56.274;43.980;2023-01-26T01:30:49;100122.66;;;-4.10;84.94
69982;BME280;57319;56.274;43.980;2023-01-26T01:33:14;100117.03;;;-4.06;84.51
69982;BME280;57319;56.274;43.980;2023-01-26T01:35:40;100127.56;;;-3.97;84.20
69982;BME280;57319;56.274;43.980;2023-01-26T01:38:05;100107.91;;;-4.04;83.98
69982;BME280;57319;56.274;43.980;2023-01-26T01:40:31;100108.84;;;-4.02;83.94
69982;BME280;57319;56.274;43.980;2023-01-26T01:42:57;100104.78;;;-4.00;84.04
69982;BME280;57319;56.274;43.980;2023-01-26T01:47:56;100099.00;;;-3.97;83.89
69982;BME280;57319;56.274;43.980;2023-01-26T01:50:24;100093.75;;;-4.02;83.92
69982;BME280;57319;56.274;43.980;2023-01-26T01:52:51;100087.81;;;-4.04;83.78
69982;BME280;57319;56.274;43.980;2023-01-26T01:55:19;100074.03;;;-4.11;84.13
69982;BME280;57319;56.274;43.980;2023-01-26T01:57:54;100080.78;;;-4.10;83.94
69982;BME280;57319;56.274;43.980;2023-01-26T02:00:22;100068.00;;;-4.14;84.25
69982;BME280;57319;56.274;43.980;2023-01-26T02:02:55;100060.84;;;-4.06;83.84
69982;BME280;57319;56.274;43.980;2023-01-26T02:08:36;100051.88;;;-4.18;84.07
69982;BME280;57319;56.274;43.980;2023-01-26T02:11:07;100063.91;;;-4.12;84.10
69982;BME280;57319;56.274;43.980;2023-01-26T02:13:33;100047.16;;;-4.12;83.77
69982;BME280;57319;56.274;43.980;2023-01-26T02:15:59;100048.97;;;-4.09;83.78
69982;BME280;57319;56.274;43.980;2023-01-26T02:18:25;100037.59;;;-4.02;84.04
69982;BME280;57319;56.274;43.980;2023-01-26T02:20:56;100041.91;;;-4.00;83.55
69982;BME280;57319;56.274;43.980;2023-01-26T02:24:00;100036.88;;;-4.00;83.72
69982;BME280;57319;56.274;43.980;2023-01-26T02:26:31;100048.28;;;-4.06;83.31
69982;BME280;57319;56.274;43.980;2023-01-26T02:28:57;100028.78;;;-4.11;83.71
69982;BME280;57319;56.274;43.980;2023-01-26T02:31:24;100024.69;;;-4.09;83.77
69982;BME280;57319;56.274;43.980;2023-01-26T02:33:51;100030.03;;;-4.02;83.59
69982;BME280;57319;56.274;43.980;2023-01-26T02:36:23;100046.31;;;-3.96;83.64
69982;BME280;57319;56.274;43.980;2023-01-26T02:41:39;100028.91;;;-3.91;83.29
69982;BME280;57319;56.274;43.980;2023-01-26T02:44:23;100034.66;;;-3.94;83.27
69982;BME280;57319;56.274;43.980;2023-01-26T02:46:49;100035.16;;;-4.01;83.43
69982;BME280;57319;56.274;43.980;2023-01-26T02:49:15;100027.28;;;-4.07;83.61
69982;BME280;57319;56.274;43.980;2023-01-26T02:51:59;100018.16;;;-4.05;83.39
69982;BME280;57319;56.274;43.980;2023-01-26T02:54:25;100013.16;;;-4.05;83.20
69982;BME280;57319;56.274;43.980;2023-01-26T02:57:09;100006.22;;;-4.09;83.55
69982;BME280;57319;56.274;43.980;2023-01-26T02:59:35;100013.72;;;-4.11;83.64
69982;BME280;57319;56.274;43.980;2023-01-26T03:02:00;100020.69;;;-4.05;83.29
69982;BME280;57319;56.274;43.980;2023-01-26T03:04:26;100018.09;;;-4.06;83.61
69982;BME280;57319;56.274;43.980;2023-01-26T03:06:51;99998.69;;;-4.09;83.51
69982;BME280;57319;56.274;43.980;2023-01-26T03:09:17;100004.66;;;-4.07;83.22
69982;BME280;57319;56.274;43.980;2023-01-26T03:11:43;99997.53;;;-4.16;83.59
69982;BME280;57319;56.274;43.980;2023-01-26T03:14:12;99992.41;;;-4.17;83.99
69982;BME280;57319;56.274;43.980;2023-01-26T03:16:38;100005.47;;;-4.08;83.97
69982;BME280;57319;56.274;43.980;2023-01-26T03:19:05;99996.19;;;-4.09;83.52
69982;BME280;57319;56.274;43.980;2023-01-26T03:21:33;99993.94;;;-4.03;83.48
69982;BME280;57319;56.274;43.980;2023-01-26T03:24:18;99999.22;;;-3.98;83.17
69982;BME280;57319;56.274;43.980;2023-01-26T03:27:02;100020.69;;;-4.05;83.16
69982;BME280;57319;56.274;43.980;2023-01-26T03:29:47;100002.13;;;-4.07;83.50
69982;BME280;57319;56.274;43.980;2023-01-26T03:32:13;99998.00;;;-4.06;83.42
69982;BME280;57319;56.274;43.980;2023-01-26T03:34:39;100004.00;;;-4.03;83.11
69982;BME280;57319;56.274;43.980;2023-01-26T03:37:05;99983.13;;;-4.02;83.42
69982;BME280;57319;56.274;43.980;2023-01-26T03:39:30;99994.50;;;-3.92;82.98
69982;BME280;57319;56.274;43.980;2023-01-26T03:42:14;100001.50;;;-4.03;83.25
69982;BME280;57319;56.274;43.980;2023-01-26T03:44:59;99976.84;;;-4.10;83.34
69982;BME280;57319;56.274;43.980;2023-01-26T03:47:43;99986.41;;;-4.03;82.84
69982;BME280;57319;56.274;43.980;2023-01-26T03:50:27;99976.41;;;-4.01;82.91
69982;BME280;57319;56.274;43.980;2023-01-26T03:53:22;99987.59;;;-3.96;82.97
69982;BME280;57319;56.274;43.980;2023-01-26T03:56:08;99984.72;;;-4.04;83.18
69982;BME280;57319;56.274;43.980;2023-01-26T03:58:56;99992.53;;;-3.98;83.47
69982;BME280;57319;56.274;43.980;2023-01-26T04:01:24;99988.06;;;-4.03;83.76
69982;BME280;57319;56.274;43.980;2023-01-26T04:03:54;99992.16;;;-4.05;83.54
69982;BME280;57319;56.274;43.980;2023-01-26T04:06:40;99998.75;;;-4.07;83.66
69982;BME280;57319;56.274;43.980;2023-01-26T04:09:24;99996.53;;;-4.01;83.65
69982;BME280;57319;56.274;43.980;2023-01-26T04:11:50;99998.06;;;-4.05;84.01
69982;BME280;57319;56.274;43.980;2023-01-26T04:14:16;100000.56;;;-4.05;84.13
69982;BME280;57319;56.274;43.980;2023-01-26T04:17:01;99995.63;;;-4.03;84.33
69982;BME280;57319;56.274;43.980;2023-01-26T04:19:46;99994.91;;;-4.01;83.99
69982;BME280;57319;56.274;43.980;2023-01-26T04:22:34;99985.69;;;-4.00;83.91
69982;BME280;57319;56.274;43.980;2023-01-26T04:25:09;99996.66;;;-4.00;84.28
69982;BME280;57319;56.274;43.980;2023-01-26T04:27:35;99985.78;;;-3.99;84.19
69982;BME280;57319;56.274;43.980;2023-01-26T04:30:02;99986.09;;;-3.93;83.99
69982;BME280;57319;56.274;43.980;2023-01-26T04:32:29;99987.91;;;-3.90;83.93
69982;BME280;57319;56.274;43.980;2023-01-26T04:34:55;99992.03;;;-3.90;83.98
69982;BME280;57319;56.274;43.980;2023-01-26T04:37:21;100009.97;;;-3.84;84.43
69982;BME280;57319;56.274;43.980;2023-01-26T04:39:47;100009.19;;;-3.83;85.34
69982;BME280;57319;56.274;43.980;2023-01-26T04:42:12;100012.84;;;-3.77;84.74
69982;BME280;57319;56.274;43.980;2023-01-26T04:44:38;100013.41;;;-3.82;85.14
69982;BME280;57319;56.274;43.980;2023-01-26T04:47:04;100022.06;;;-3.77;85.31
69982;BME280;57319;56.274;43.980;2023-01-26T04:49:29;100022.06;;;-3.77;85.45
69982;BME280;57319;56.274;43.980;2023-01-26T04:51:55;100023.53;;;-3.81;84.90
69982;BME280;57319;56.274;43.980;2023-01-26T04:54:21;100016.34;;;-3.91;85.34
69982;BME280;57319;56.274;43.980;2023-01-26T04:56:46;100026.69;;;-3.85;85.04
69982;BME280;57319;56.274;43.980;2023-01-26T04:59:12;100037.78;;;-3.81;85.09
69982;BME280;57319;56.274;43.980;2023-01-26T05:01:38;100036.94;;;-3.82;85.51
69982;BME280;57319;56.274;43.980;2023-01-26T05:04:05;100037.72;;;-3.83;85.36
69982;BME280;57319;56.274;43.980;2023-01-26T05:06:31;100042.59;;;-3.86;85.14
69982;BME280;57319;56.274;43.980;2023-01-26T05:08:57;100036.94;;;-3.82;85.28
69982;BME280;57319;56.274;43.980;2023-01-26T05:11:23;100027.72;;;-3.81;85.29
69982;BME280;57319;56.274;43.980;2023-01-26T05:13:48;100043.28;;;-3.72;85.50
69982;BME280;57319;56.274;43.980;2023-01-26T05:16:14;100046.16;;;-3.64;85.05
69982;BME280;57319;56.274;43.980;2023-01-26T05:18:40;100038.59;;;-3.64;85.05
69982;BME280;57319;56.274;43.980;2023-01-26T05:21:06;100041.03;;;-3.66;84.97
69982;BME280;57319;56.274;43.980;2023-01-26T05:23:32;100035.09;;;-3.68;84.68
69982;BME280;57319;56.274;43.980;2023-01-26T05:25:58;100032.50;;;-3.69;84.96
69982;BME280;57319;56.274;43.980;2023-01-26T05:28:23;100035.09;;;-3.68;84.85
69982;BME280;57319;56.274;43.980;2023-01-26T05:30:49;100024.38;;;-3.64;84.46
69982;BME280;57319;56.274;43.980;2023-01-26T05:33:15;100028.25;;;-3.70;84.69
69982;BME280;57319;56.274;43.980;2023-01-26T05:35:41;100019.91;;;-3.69;85.15
69982;BME280;57319;56.274;43.980;2023-01-26T05:38:07;100029.09;;;-3.70;85.11
69982;BME280;57319;56.274;43.980;2023-01-26T05:40:33;100031.69;;;-3.68;84.67
69982;BME280;57319;56.274;43.980;2023-01-26T05:43:00;100040.56;;;-3.59;84.66
69982;BME280;57319;56.274;43.980;2023-01-26T05:45:25;100044.88;;;-3.56;85.02
69982;BME280;57319;56.274;43.980;2023-01-26T05:47:51;100033.81;;;-3.60;84.59
69982;BME280;57319;56.274;43.980;2023-01-26T05:50:17;100025.13;;;-3.48;84.30
69982;BME280;57319;56.274;43.980;2023-01-26T05:52:43;100028.28;;;-3.52;84.35
69982;BME280;57319;56.274;43.980;2023-01-26T05:55:11;100019.63;;;-3.58;84.13
69982;BME280;57319;56.274;43.980;2023-01-26T05:57:38;100022.09;;;-3.59;84.40
69982;BME280;57319;56.274;43.980;2023-01-26T06:00:05;100034.91;;;-3.54;84.46
69982;BME280;57319;56.274;43.980;2023-01-26T06:02:32;100027.50;;;-3.51;84.30
69982;BME280;57319;56.274;43.980;2023-01-26T06:04:57;100031.25;;;-3.43;84.19
69982;BME280;57319;56.274;43.980;2023-01-26T06:07:23;100028.41;;;-3.49;84.13
69982;BME280;57319;56.274;43.980;2023-01-26T06:09:51;100023.63;;;-3.45;83.78
69982;BME280;57319;56.274;43.980;2023-01-26T06:12:19;100028.59;;;-3.46;83.90
69982;BME280;57319;56.274;43.980;2023-01-26T06:14:45;100025.25;;;-3.45;84.02
69982;BME280;57319;56.274;43.980;2023-01-26T06:17:11;100034.53;;;-3.44;83.91
69982;BME280;57319;56.274;43.980;2023-01-26T06:19:36;100030.94;;;-3.49;83.78
69982;BME280;57319;56.274;43.980;2023-01-26T06:22:03;100031.88;;;-3.47;83.83
69982;BME280;57319;56.274;43.980;2023-01-26T06:24:31;100031.06;;;-3.64;83.81
69982;BME280;57319;56.274;43.980;2023-01-26T06:26:59;100033.81;;;-3.60;83.89
69982;BME280;57319;56.274;43.980;2023-01-26T06:29:24;100039.69;;;-3.59;83.93
69982;BME280;57319;56.274;43.980;2023-01-26T06:31:50;100021.72;;;-3.67;83.69
69982;BME280;57319;56.274;43.980;2023-01-26T06:34:16;100036.97;;;-3.64;84.00
69982;BME280;57319;56.274;43.980;2023-01-26T06:36:41;100041.34;;;-3.60;83.42
69982;BME280;57319;56.274;43.980;2023-01-26T06:39:08;100043.22;;;-3.55;83.54
69982;BME280;57319;56.274;43.980;2023-01-26T06:41:35;100035.63;;;-3.57;83.01
69982;BME280;57319;56.274;43.980;2023-01-26T06:44:01;100029.63;;;-3.59;82.92
69982;BME280;57319;56.274;43.980;2023-01-26T06:46:26;100043.34;;;-3.70;83.04
69982;BME280;57319;56.274;43.980;2023-01-26T06:48:52;100035.66;;;-3.73;83.16
69982;BME280;57319;56.274;43.980;2023-01-26T06:53:56;100034.94;;;-3.71;83.39
69982;BME280;57319;56.274;43.980;2023-01-26T06:56:23;100033.56;;;-3.64;83.58
69982;BME280;57319;56.274;43.980;2023-01-26T06:58:52;100028.88;;;-3.75;83.27
69982;BME280;57319;56.274;43.980;2023-01-26T07:01:22;100033.22;;;-3.72;82.96
69982;BME280;57319;56.274;43.980;2023-01-26T07:03:51;100023.16;;;-3.72;82.94
69982;BME280;57319;56.274;43.980;2023-01-26T07:06:17;100029.03;;;-3.71;82.94
69982;BME280;57319;56.274;43.980;2023-01-26T07:08:43;100019.84;;;-3.71;82.76
69982;BME280;57319;56.274;43.980;2023-01-26T07:11:09;100035.88;;;-3.69;82.33
69982;BME280;57319;56.274;43.980;2023-01-26T07:13:35;100027.47;;;-3.69;82.48
69982;BME280;57319;56.274;43.980;2023-01-26T07:16:05;100023.59;;;-3.63;82.22
69982;BME280;57319;56.274;43.980;2023-01-26T07:18:31;100016.38;;;-3.73;82.13
69982;BME280;57319;56.274;43.980;2023-01-26T07:21:04;100017.88;;;-3.77;82.16
69982;BME280;57319;56.274;43.980;2023-01-26T07:23:30;100021.28;;;-3.76;82.41
69982;BME280;57319;56.274;43.980;2023-01-26T07:25:56;100019.84;;;-3.71;82.09
69982;BME280;57319;56.274;43.980;2023-01-26T07:28:21;100023.44;;;-3.66;82.46
69982;BME280;57319;56.274;43.980;2023-01-26T07:30:47;100017.47;;;-3.68;82.02
69982;BME280;57319;56.274;43.980;2023-01-26T07:33:14;100023.44;;;-3.66;82.12
69982;BME280;57319;56.274;43.980;2023-01-26T07:35:40;100027.81;;;-3.62;82.14
69982;BME280;57319;56.274;43.980;2023-01-26T07:38:06;100022.44;;;-3.69;81.37
69982;BME280;57319;56.274;43.980;2023-01-26T07:40:32;100023.78;;;-3.76;81.66
69982;BME280;57319;56.274;43.980;2023-01-26T07:42:59;100026.59;;;-3.70;81.36
69982;BME280;57319;56.274;43.980;2023-01-26T07:45:25;100030.19;;;-3.65;81.69
69982;BME280;57319;56.274;43.980;2023-01-26T07:47:54;100042.13;;;-3.61;81.78
69982;BME280;57319;56.274;43.980;2023-01-26T07:50:20;100033.66;;;-3.63;81.37
69982;BME280;57319;56.274;43.980;2023-01-26T07:52:49;100030.91;;;-3.67;81.69
69982;BME280;57319;56.274;43.980;2023-01-26T07:55:19;100025.94;;;-3.66;81.12
69982;BME280;57319;56.274;43.980;2023-01-26T07:57:49;100032.72;;;-3.65;81.17
69982;BME280;57319;56.274;43.980;2023-01-26T08:00:15;100021.94;;;-3.62;81.02
69982;BME280;57319;56.274;43.980;2023-01-26T08:02:41;100026.03;;;-3.64;80.89
69982;BME280;57319;56.274;43.980;2023-01-26T08:05:07;100027.91;;;-3.60;80.68
69982;BME280;57319;56.274;43.980;2023-01-26T08:07:33;100024.84;;;-3.54;80.49
69982;BME280;57319;56.274;43.980;2023-01-26T08:09:59;100026.34;;;-3.40;80.38
69982;BME280;57319;56.274;43.980;2023-01-26T08:12:25;100022.00;;;-3.61;80.31
69982;BME280;57319;56.274;43.980;2023-01-26T08:14:50;100030.34;;;-3.62;80.19
69982;BME280;57319;56.274;43.980;2023-01-26T08:17:16;100026.13;;;-3.63;80.69
69982;BME280;57319;56.274;43.980;2023-01-26T08:19:45;100023.59;;;-3.63;80.73
69982;BME280;57319;56.274;43.980;2023-01-26T08:22:11;100027.34;;;-3.54;80.65
69982;BME280;57319;56.274;43.980;2023-01-26T08:24:37;100015.75;;;-3.51;80.08
69982;BME280;57319;56.274;43.980;2023-01-26T08:27:02;100021.09;;;-3.45;79.68
69982;BME280;57319;56.274;43.980;2023-01-26T08:29:28;100012.84;;;-3.42;79.25
69982;BME280;57319;56.274;43.980;2023-01-26T08:31:54;100015.44;;;-3.41;79.65
69982;BME280;57319;56.274;43.980;2023-01-26T08:34:19;100007.16;;;-3.38;79.23
69982;BME280;57319;56.274;43.980;2023-01-26T08:36:47;100005.88;;;-3.30;79.05
69982;BME280;57319;56.274;43.980;2023-01-26T08:39:13;100005.22;;;-3.26;78.49
69982;BME280;57319;56.274;43.980;2023-01-26T08:41:38;99997.88;;;-3.21;78.52
69982;BME280;57319;56.274;43.980;2023-01-26T08:44:05;100000.81;;;-3.12;77.96
69982;BME280;57319;56.274;43.980;2023-01-26T08:46:31;99988.50;;;-3.05;77.99
69982;BME280;57319;56.274;43.980;2023-01-26T08:48:57;99985.13;;;-3.06;77.05
69982;BME280;57319;56.274;43.980;2023-01-26T08:51:23;99987.66;;;-3.24;77.55
69982;BME280;57319;56.274;43.980;2023-01-26T08:53:49;99989.47;;;-3.21;77.92
69982;BME280;57319;56.274;43.980;2023-01-26T08:56:14;99995.56;;;-3.16;78.05
69982;BME280;57319;56.274;43.980;2023-01-26T08:58:40;99983.03;;;-3.15;77.62
69982;BME280;57319;56.274;43.980;2023-01-26T09:01:09;99988.50;;;-3.05;77.13
69982;BME280;57319;56.274;43.980;2023-01-26T09:03:35;99982.31;;;-3.12;77.29
69982;BME280;57319;56.274;43.980;2023-01-26T09:06:01;99978.44;;;-3.24;76.85
69982;BME280;57319;56.274;43.980;2023-01-26T09:08:28;99985.22;;;-3.22;77.22
69982;BME280;57319;56.274;43.980;2023-01-26T09:10:54;99973.63;;;-3.19;77.58
69982;BME280;57319;56.274;43.980;2023-01-26T09:13:20;99976.44;;;-3.13;77.31
69982;BME280;57319;56.274;43.980;2023-01-26T09:15:46;99971.09;;;-3.19;77.50
69982;BME280;57319;56.274;43.980;2023-01-26T09:18:12;99977.88;;;-3.18;77.55
69982;BME280;57319;56.274;43.980;2023-01-26T09:20:38;99975.63;;;-3.12;77.52
69982;BME280;57319;56.274;43.980;2023-01-26T09:23:04;99980.69;;;-3.30;77.44
69982;BME280;57319;56.274;43.980;2023-01-26T09:25:29;99977.16;;;-3.33;77.32
69982;BME280;57319;56.274;43.980;2023-01-26T09:27:55;99968.66;;;-3.35;77.38
69982;BME280;57319;56.274;43.980;2023-01-26T09:30:21;99971.41;;;-3.49;77.28
69982;BME280;57319;56.274;43.980;2023-01-26T09:32:49;99961.69;;;-3.59;77.80
69982;BME280;57319;56.274;43.980;2023-01-26T09:35:15;99966.44;;;-3.47;78.07
69982;BME280;57319;56.274;43.980;2023-01-26T09:37:44;99967.03;;;-3.53;77.95
69982;BME280;57319;56.274;43.980;2023-01-26T09:40:20;99976.38;;;-3.50;77.99
69982;BME280;57319;56.274;43.980;2023-01-26T09:43:06;99969.38;;;-3.56;77.97
69982;BME280;57319;56.274;43.980;2023-01-26T09:45:45;99969.03;;;-3.64;78.24
69982;BME280;57319;56.274;43.980;2023-01-26T09:56:34;99961.63;;;-3.61;78.93
69982;BME280;57319;56.274;43.980;2023-01-26T09:59:05;99955.22;;;-3.72;78.59
69982;BME280;57319;56.274;43.980;2023-01-26T10:07:10;99971.88;;;-3.74;78.90
69982;BME280;57319;56.274;43.980;2023-01-26T10:09:37;99976.19;;;-3.71;78.71
69982;BME280;57319;56.274;43.980;2023-01-26T10:14:51;99969.03;;;-3.64;78.28
69982;BME280;57319;56.274;43.980;2023-01-26T10:17:38;99962.56;;;-3.59;78.02
69982;BME280;57319;56.274;43.980;2023-01-26T10:20:16;99967.75;;;-3.55;77.62
69982;BME280;57319;56.274;43.980;2023-01-26T10:22:54;99963.63;;;-3.71;77.86
69982;BME280;57319;56.274;43.980;2023-01-26T10:25:37;99971.94;;;-3.72;78.02
69982;BME280;57319;56.274;43.980;2023-01-26T10:28:26;99971.66;;;-3.79;78.43
69982;BME280;57319;56.274;43.980;2023-01-26T10:30:52;99981.66;;;-3.80;78.33
69982;BME280;57319;56.274;43.980;2023-01-26T10:35:48;99964.75;;;-3.83;78.79
69982;BME280;57319;56.274;43.980;2023-01-26T10:41:06;99969.09;;;-3.80;79.04
69982;BME280;57319;56.274;43.980;2023-01-26T10:46:34;99959.59;;;-3.86;78.32
69982;BME280;57319;56.274;43.980;2023-01-26T10:49:02;99958.28;;;-3.96;78.97
69982;BME280;57319;56.274;43.980;2023-01-26T10:51:44;99969.25;;;-3.94;78.96
69982;BME280;57319;56.274;43.980;2023-01-26T10:54:19;99959.06;;;-3.97;79.19
69982;BME280;57319;56.274;43.980;2023-01-26T10:56:54;99954.81;;;-3.98;79.34
69982;BME280;57319;56.274;43.980;2023-01-26T11:07:40;99956.78;;;-3.56;77.77
69982;BME280;57319;56.274;43.980;2023-01-26T11:12:44;99960.78;;;-3.61;77.93
69982;BME280;57319;56.274;43.980;2023-01-26T11:15:22;99957.22;;;-3.65;77.86
69982;BME280;57319;56.274;43.980;2023-01-26T11:25:27;99954.28;;;-3.74;78.09
69982;BME280;57319;56.274;43.980;2023-01-26T11:39:45;99960.91;;;-3.76;78.14
69982;BME280;57319;56.274;43.980;2023-01-26T11:42:28;99975.84;;;-3.79;78.20
69982;BME280;57319;56.274;43.980;2023-01-26T11:45:13;99981.03;;;-3.76;78.54
69982;BME280;57319;56.274;43.980;2023-01-26T11:50:46;99980.53;;;-3.69;78.36
69982;BME280;57319;56.274;43.980;2023-01-26T11:53:50;99989.31;;;-3.61;78.12
69982;BME280;57319;56.274;43.980;2023-01-26T11:59:01;99990.19;;;-3.77;78.25
69982;BME280;57319;56.274;43.980;2023-01-26T12:01:33;99982.91;;;-3.72;78.71
69982;BME280;57319;56.274;43.980;2023-01-26T12:04:00;99983.59;;;-3.75;78.31
69982;BME280;57319;56.274;43.980;2023-01-26T12:06:36;99980.88;;;-3.79;78.64
69982;BME280;57319;56.274;43.980;2023-01-26T12:11:41;99979.03;;;-4.00;79.79
69982;BME280;57319;56.274;43.980;2023-01-26T12:17:17;99975.44;;;-4.05;80.92
69982;BME280;57319;56.274;43.980;2023-01-26T12:25:39;99968.56;;;-3.91;81.60
69982;BME280;57319;56.274;43.980;2023-01-26T12:28:14;99969.84;;;-3.99;81.11
69982;BME280;57319;56.274;43.980;2023-01-26T12:33:33;99963.38;;;-3.94;81.03
69982;BME280;57319;56.274;43.980;2023-01-26T12:39:07;99970.25;;;-4.08;80.25
69982;BME280;57319;56.274;43.980;2023-01-26T12:44:35;99965.88;;;-4.12;79.89
69982;BME280;57319;56.274;43.980;2023-01-26T12:52:42;99971.75;;;-4.12;79.80
69982;BME280;57319;56.274;43.980;2023-01-26T12:55:23;99963.56;;;-4.07;79.60
69982;BME280;57319;56.274;43.980;2023-01-26T12:57:56;99969.22;;;-4.12;79.20
69982;BME280;57319;56.274;43.980;2023-01-26T13:00:26;99977.63;;;-4.11;79.55
69982;BME280;57319;56.274;43.980;2023-01-26T13:03:04;99987.69;;;-4.11;79.35
69982;BME280;57319;56.274;43.980;2023-01-26T13:05:34;99989.28;;;-4.13;79.59
69982;BME280;57319;56.274;43.980;2023-01-26T13:10:58;99974.97;;;-4.14;79.20
69982;BME280;57319;56.274;43.980;2023-01-26T13:13:30;99986.44;;;-4.19;79.46
69982;BME280;57319;56.274;43.980;2023-01-26T13:18:56;99981.03;;;-4.27;79.70
69982;BME280;57319;56.274;43.980;2023-01-26T13:21:41;99981.03;;;-4.27;79.58
69982;BME280;57319;56.274;43.980;2023-01-26T13:26:47;99998.00;;;-4.23;79.69
69982;BME280;57319;56.274;43.980;2023-01-26T13:29:27;99983.63;;;-4.26;80.19
69982;BME280;57319;56.274;43.980;2023-01-26T13:31:55;99993.19;;;-4.18;80.16
69982;BME280;57319;56.274;43.980;2023-01-26T13:34:26;99989.44;;;-4.27;80.04
69982;BME280;57319;56.274;43.980;2023-01-26T13:36:55;99981.91;;;-4.27;80.01
69982;BME280;57319;56.274;43.980;2023-01-26T13:39:33;99989.34;;;-4.28;80.01
69982;BME280;57319;56.274;43.980;2023-01-26T13:41:59;99997.59;;;-4.31;79.77
69982;BME280;57319;56.274;43.980;2023-01-26T13:44:41;99992.28;;;-4.37;80.20
69982;BME280;57319;56.274;43.980;2023-01-26T13:47:18;99982.84;;;-4.41;80.27
69982;BME280;57319;56.274;43.980;2023-01-26T13:49:44;99984.75;;;-4.37;80.15
69982;BME280;57319;56.274;43.980;2023-01-26T13:52:24;99992.91;;;-4.41;79.89
69982;BME280;57319;56.274;43.980;2023-01-26T13:54:52;99988.03;;;-4.54;79.91
69982;BME280;57319;56.274;43.980;2023-01-26T13:57:26;99981.41;;;-4.52;80.26
69982;BME280;57319;56.274;43.980;2023-01-26T13:59:54;99976.81;;;-4.45;80.51
69982;BME280;57319;56.274;43.980;2023-01-26T14:02:32;99987.56;;;-4.47;80.33
69982;BME280;57319;56.274;43.980;2023-01-26T14:04:59;99979.25;;;-4.46;80.63
69982;BME280;57319;56.274;43.980;2023-01-26T14:07:40;99982.84;;;-4.41;80.84
69982;BME280;57319;56.274;43.980;2023-01-26T14:10:15;99979.78;;;-4.35;80.04
69982;BME280;57319;56.274;43.980;2023-01-26T14:12:45;99978.34;;;-4.30;80.01
69982;BME280;57319;56.274;43.980;2023-01-26T14:15:25;99990.00;;;-4.32;79.54
69982;BME280;57319;56.274;43.980;2023-01-26T14:17:59;99992.44;;;-4.34;80.12
69982;BME280;57319;56.274;43.980;2023-01-26T14:20:34;99988.97;;;-4.36;80.13
69982;BME280;57319;56.274;43.980;2023-01-26T14:23:12;99990.13;;;-4.29;80.38
69982;BME280;57319;56.274;43.980;2023-01-26T14:25:40;99982.44;;;-4.32;79.85
69982;BME280;57319;56.274;43.980;2023-01-26T14:28:13;99985.25;;;-4.26;79.77
69982;BME280;57319;56.274;43.980;2023-01-26T14:30:39;99982.22;;;-4.37;79.95
69982;BME280;57319;56.274;43.980;2023-01-26T14:33:11;99993.22;;;-4.35;79.58
69982;BME280;57319;56.274;43.980;2023-01-26T14:35:37;99986.69;;;-4.48;79.81
69982;BME280;57319;56.274;43.980;2023-01-26T14:38:24;99982.69;;;-4.44;80.39
69982;BME280;57319;56.274;43.980;2023-01-26T14:40:54;99981.59;;;-4.49;80.32
69982;BME280;57319;56.274;43.980;2023-01-26T14:43:22;99991.47;;;-4.52;80.50